sensor_id;sensor_type;location;lat;lon;timestamp;P1;durP1;ratioP1;P2;durP2;ratioP2
71629;SDS011;59479;51.902;8.212;2022-08-21T00:02:22;6.30;;;3.63;;
71629;SDS011;59479;51.902;8.212;2022-08-21T00:04:49;7.65;;;3.72;;
71629;SDS011;59479;51.902;8.212;2022-08-21T00:07:15;7.43;;;3.30;;
71629;SDS011;59479;51.902;8.212;2022-08-21T00:09:41;8.07;;;3.60;;
71629;SDS011;59479;51.902;8.212;2022-08-21T00:12:07;5.47;;;3.10;;
71629;SDS011;59479;51.902;8.212;2022-08-21T00:14:33;7.18;;;3.70;;
71629;SDS011;59479;51.902;8.212;2022-08-21T00:16:59;6.45;;;3.35;;
71629;SDS011;59479;51.902;8.212;2022-08-21T00:19:25;6.13;;;3.50;;
71629;SDS011;59479;51.902;8.212;2022-08-21T00:21:51;6.22;;;3.47;;
71629;SDS011;59479;51.902;8.212;2022-08-21T00:24:18;5.65;;;3.67;;
71629;SDS011;59479;51.902;8.212;2022-08-21T00:26:44;7.47;;;3.13;;
71629;SDS011;59479;51.902;8.212;2022-08-21T00:29:10;6.93;;;3.00;;
71629;SDS011;59479;51.902;8.212;2022-08-21T00:31:35;6.90;;;3.60;;
71629;SDS011;59479;51.902;8.212;2022-08-21T00:34:01;6.18;;;3.17;;
71629;SDS011;59479;51.902;8.212;2022-08-21T00:36:28;11.70;;;4.03;;
71629;SDS011;59479;51.902;8.212;2022-08-21T00:38:53;8.32;;;3.78;;
71629;SDS011;59479;51.902;8.212;2022-08-21T00:41:19;6.95;;;3.70;;
71629;SDS011;59479;51.902;8.212;2022-08-21T00:43:44;6.50;;;3.80;;
71629;SDS011;59479;51.902;8.212;2022-08-21T00:46:10;6.73;;;3.60;;
71629;SDS011;59479;51.902;8.212;2022-08-21T00:48:35;6.30;;;3.60;;
71629;SDS011;59479;51.902;8.212;2022-08-21T00:51:11;6.55;;;3.83;;
71629;SDS011;59479;51.902;8.212;2022-08-21T00:53:43;7.37;;;3.93;;
71629;SDS011;59479;51.902;8.212;2022-08-21T00:56:10;6.78;;;3.97;;
71629;SDS011;59479;51.902;8.212;2022-08-21T00:58:37;5.43;;;3.30;;
71629;SDS011;59479;51.902;8.212;2022-08-21T01:01:06;8.25;;;3.80;;
71629;SDS011;59479;51.902;8.212;2022-08-21T01:03:33;10.57;;;3.67;;
71629;SDS011;59479;51.902;8.212;2022-08-21T01:05:59;8.20;;;4.00;;
71629;SDS011;59479;51.902;8.212;2022-08-21T01:08:24;9.70;;;3.83;;
71629;SDS011;59479;51.902;8.212;2022-08-21T01:10:50;6.47;;;3.40;;
71629;SDS011;59479;51.902;8.212;2022-08-21T01:13:20;9.88;;;3.83;;
71629;SDS011;59479;51.902;8.212;2022-08-21T01:15:48;7.63;;;3.70;;
71629;SDS011;59479;51.902;8.212;2022-08-21T01:18:17;8.70;;;4.03;;
71629;SDS011;59479;51.902;8.212;2022-08-21T01:23:28;7.82;;;3.90;;
71629;SDS011;59479;51.902;8.212;2022-08-21T01:25:53;8.00;;;4.23;;
71629;SDS011;59479;51.902;8.212;2022-08-21T01:28:19;7.37;;;4.20;;
71629;SDS011;59479;51.902;8.212;2022-08-21T01:30:46;10.25;;;4.35;;
71629;SDS011;59479;51.902;8.212;2022-08-21T01:33:11;7.85;;;4.22;;
71629;SDS011;59479;51.902;8.212;2022-08-21T01:35:37;7.47;;;4.60;;
71629;SDS011;59479;51.902;8.212;2022-08-21T01:38:02;8.80;;;4.27;;
71629;SDS011;59479;51.902;8.212;2022-08-21T01:40:28;8.33;;;4.20;;
71629;SDS011;59479;51.902;8.212;2022-08-21T01:42:53;7.60;;;3.70;;
71629;SDS011;59479;51.902;8.212;2022-08-21T01:45:19;7.83;;;4.43;;
71629;SDS011;59479;51.902;8.212;2022-08-21T01:47:44;6.57;;;3.73;;
71629;SDS011;59479;51.902;8.212;2022-08-21T01:50:12;7.55;;;3.90;;
71629;SDS011;59479;51.902;8.212;2022-08-21T01:52:40;7.03;;;4.05;;
71629;SDS011;59479;51.902;8.212;2022-08-21T01:55:07;6.37;;;3.70;;
71629;SDS011;59479;51.902;8.212;2022-08-21T01:57:33;7.43;;;3.88;;
71629;SDS011;59479;51.902;8.212;2022-08-21T01:59:59;6.50;;;4.03;;
71629;SDS011;59479;51.902;8.212;2022-08-21T02:02:24;8.30;;;4.07;;
71629;SDS011;59479;51.902;8.212;2022-08-21T02:04:50;8.57;;;4.17;;
71629;SDS011;59479;51.902;8.212;2022-08-21T02:07:15;9.17;;;3.80;;
71629;SDS011;59479;51.902;8.212;2022-08-21T02:09:41;6.33;;;3.57;;
71629;SDS011;59479;51.902;8.212;2022-08-21T02:12:07;8.30;;;3.83;;
71629;SDS011;59479;51.902;8.212;2022-08-21T02:14:33;12.25;;;4.57;;
71629;SDS011;59479;51.902;8.212;2022-08-21T02:16:58;9.10;;;4.32;;
71629;SDS011;59479;51.902;8.212;2022-08-21T02:19:24;8.27;;;3.87;;
71629;SDS011;59479;51.902;8.212;2022-08-21T02:21:49;7.77;;;4.63;;
71629;SDS011;59479;51.902;8.212;2022-08-21T02:24:14;8.60;;;4.10;;
71629;SDS011;59479;51.902;8.212;2022-08-21T02:26:40;7.10;;;4.20;;
71629;SDS011;59479;51.902;8.212;2022-08-21T02:29:05;7.15;;;3.88;;
71629;SDS011;59479;51.902;8.212;2022-08-21T02:31:30;8.63;;;3.90;;
71629;SDS011;59479;51.902;8.212;2022-08-21T02:33:56;11.17;;;4.97;;
71629;SDS011;59479;51.902;8.212;2022-08-21T02:36:21;7.43;;;4.87;;
71629;SDS011;59479;51.902;8.212;2022-08-21T02:38:47;8.07;;;4.30;;
71629;SDS011;59479;51.902;8.212;2022-08-21T02:41:15;8.60;;;4.55;;
71629;SDS011;59479;51.902;8.212;2022-08-21T02:43:45;8.00;;;4.30;;
71629;SDS011;59479;51.902;8.212;2022-08-21T02:46:12;7.32;;;4.57;;
71629;SDS011;59479;51.902;8.212;2022-08-21T02:48:39;7.65;;;5.07;;
71629;SDS011;59479;51.902;8.212;2022-08-21T02:53:35;8.75;;;4.47;;
71629;SDS011;59479;51.902;8.212;2022-08-21T02:56:02;9.20;;;4.57;;
71629;SDS011;59479;51.902;8.212;2022-08-21T02:58:31;7.78;;;5.05;;
71629;SDS011;59479;51.902;8.212;2022-08-21T03:00:59;9.57;;;5.28;;
71629;SDS011;59479;51.902;8.212;2022-08-21T03:03:25;10.20;;;4.67;;
71629;SDS011;59479;51.902;8.212;2022-08-21T03:05:51;9.52;;;4.55;;
71629;SDS011;59479;51.902;8.212;2022-08-21T03:08:17;7.70;;;4.50;;
71629;SDS011;59479;51.902;8.212;2022-08-21T03:10:44;9.32;;;5.35;;
71629;SDS011;59479;51.902;8.212;2022-08-21T03:13:11;10.15;;;4.95;;
71629;SDS011;59479;51.902;8.212;2022-08-21T03:15:37;9.60;;;5.13;;
71629;SDS011;59479;51.902;8.212;2022-08-21T03:18:05;9.35;;;4.72;;
71629;SDS011;59479;51.902;8.212;2022-08-21T03:20:32;9.90;;;5.25;;
71629;SDS011;59479;51.902;8.212;2022-08-21T03:22:59;9.75;;;4.63;;
71629;SDS011;59479;51.902;8.212;2022-08-21T03:25:25;7.43;;;4.43;;
71629;SDS011;59479;51.902;8.212;2022-08-21T03:27:52;9.18;;;4.85;;
71629;SDS011;59479;51.902;8.212;2022-08-21T03:30:18;9.53;;;4.97;;
71629;SDS011;59479;51.902;8.212;2022-08-21T03:32:45;10.80;;;5.68;;
71629;SDS011;59479;51.902;8.212;2022-08-21T03:35:12;12.38;;;4.72;;
71629;SDS011;59479;51.902;8.212;2022-08-21T03:37:38;11.02;;;4.97;;
71629;SDS011;59479;51.902;8.212;2022-08-21T03:40:05;10.00;;;5.47;;
71629;SDS011;59479;51.902;8.212;2022-08-21T03:42:32;9.07;;;5.20;;
71629;SDS011;59479;51.902;8.212;2022-08-21T03:44:57;8.82;;;4.68;;
71629;SDS011;59479;51.902;8.212;2022-08-21T03:47:22;9.63;;;4.68;;
71629;SDS011;59479;51.902;8.212;2022-08-21T03:49:48;12.77;;;5.43;;
71629;SDS011;59479;51.902;8.212;2022-08-21T03:52:14;12.03;;;6.03;;
71629;SDS011;59479;51.902;8.212;2022-08-21T03:54:41;9.95;;;5.32;;
71629;SDS011;59479;51.902;8.212;2022-08-21T03:57:06;11.90;;;5.00;;
71629;SDS011;59479;51.902;8.212;2022-08-21T03:59:32;9.00;;;4.85;;
71629;SDS011;59479;51.902;8.212;2022-08-21T04:01:59;12.70;;;5.23;;
71629;SDS011;59479;51.902;8.212;2022-08-21T04:04:26;7.25;;;4.65;;
71629;SDS011;59479;51.902;8.212;2022-08-21T04:06:53;10.07;;;6.05;;
71629;SDS011;59479;51.902;8.212;2022-08-21T04:09:19;8.82;;;4.95;;
71629;SDS011;59479;51.902;8.212;2022-08-21T04:11:44;17.37;;;6.07;;
71629;SDS011;59479;51.902;8.212;2022-08-21T04:14:13;11.93;;;5.65;;
71629;SDS011;59479;51.902;8.212;2022-08-21T04:16:39;12.90;;;5.57;;
71629;SDS011;59479;51.902;8.212;2022-08-21T04:19:06;9.55;;;5.13;;
71629;SDS011;59479;51.902;8.212;2022-08-21T04:21:32;9.05;;;5.00;;
71629;SDS011;59479;51.902;8.212;2022-08-21T04:23:57;9.80;;;5.15;;
71629;SDS011;59479;51.902;8.212;2022-08-21T04:26:24;9.83;;;4.90;;
71629;SDS011;59479;51.902;8.212;2022-08-21T04:28:50;10.30;;;4.53;;
71629;SDS011;59479;51.902;8.212;2022-08-21T04:31:16;11.75;;;5.80;;
71629;SDS011;59479;51.902;8.212;2022-08-21T04:33:41;10.30;;;5.07;;
71629;SDS011;59479;51.902;8.212;2022-08-21T04:36:06;11.10;;;5.07;;
71629;SDS011;59479;51.902;8.212;2022-08-21T04:38:32;10.07;;;5.30;;
71629;SDS011;59479;51.902;8.212;2022-08-21T04:40:58;12.90;;;5.15;;
71629;SDS011;59479;51.902;8.212;2022-08-21T04:43:23;10.70;;;5.10;;
71629;SDS011;59479;51.902;8.212;2022-08-21T04:45:49;8.37;;;4.73;;
71629;SDS011;59479;51.902;8.212;2022-08-21T04:48:17;8.02;;;4.85;;
71629;SDS011;59479;51.902;8.212;2022-08-21T04:53:18;11.82;;;5.00;;
71629;SDS011;59479;51.902;8.212;2022-08-21T04:55:55;10.32;;;5.28;;
71629;SDS011;59479;51.902;8.212;2022-08-21T04:58:21;9.53;;;4.83;;
71629;SDS011;59479;51.902;8.212;2022-08-21T05:00:50;10.02;;;5.00;;
71629;SDS011;59479;51.902;8.212;2022-08-21T05:03:18;8.00;;;4.72;;
71629;SDS011;59479;51.902;8.212;2022-08-21T05:05:43;9.43;;;4.87;;
71629;SDS011;59479;51.902;8.212;2022-08-21T05:08:09;8.93;;;5.47;;
71629;SDS011;59479;51.902;8.212;2022-08-21T05:10:39;8.60;;;4.78;;
71629;SDS011;59479;51.902;8.212;2022-08-21T05:13:05;9.90;;;4.78;;
71629;SDS011;59479;51.902;8.212;2022-08-21T05:15:31;9.00;;;5.35;;
71629;SDS011;59479;51.902;8.212;2022-08-21T05:17:57;8.40;;;5.10;;
71629;SDS011;59479;51.902;8.212;2022-08-21T05:20:23;8.57;;;4.83;;
71629;SDS011;59479;51.902;8.212;2022-08-21T05:22:48;10.00;;;4.73;;
71629;SDS011;59479;51.902;8.212;2022-08-21T05:25:13;9.15;;;4.65;;
71629;SDS011;59479;51.902;8.212;2022-08-21T05:27:39;8.33;;;4.20;;
71629;SDS011;59479;51.902;8.212;2022-08-21T05:30:08;8.63;;;4.90;;
71629;SDS011;59479;51.902;8.212;2022-08-21T05:32:37;8.82;;;4.63;;
71629;SDS011;59479;51.902;8.212;2022-08-21T05:35:06;8.18;;;4.47;;
71629;SDS011;59479;51.902;8.212;2022-08-21T05:37:32;8.55;;;4.93;;
71629;SDS011;59479;51.902;8.212;2022-08-21T05:39:58;8.73;;;5.00;;
71629;SDS011;59479;51.902;8.212;2022-08-21T05:42:24;11.40;;;4.63;;
71629;SDS011;59479;51.902;8.212;2022-08-21T05:44:49;9.37;;;5.03;;
71629;SDS011;59479;51.902;8.212;2022-08-21T05:47:15;10.13;;;5.27;;
71629;SDS011;59479;51.902;8.212;2022-08-21T05:49:40;12.40;;;5.25;;
71629;SDS011;59479;51.902;8.212;2022-08-21T05:52:05;13.57;;;5.25;;
71629;SDS011;59479;51.902;8.212;2022-08-21T05:54:31;9.73;;;5.17;;
71629;SDS011;59479;51.902;8.212;2022-08-21T05:56:56;9.70;;;5.63;;
71629;SDS011;59479;51.902;8.212;2022-08-21T05:59:22;9.90;;;4.95;;
71629;SDS011;59479;51.902;8.212;2022-08-21T06:01:48;9.47;;;5.20;;
71629;SDS011;59479;51.902;8.212;2022-08-21T06:04:13;10.60;;;5.43;;
71629;SDS011;59479;51.902;8.212;2022-08-21T06:06:39;10.10;;;5.53;;
71629;SDS011;59479;51.902;8.212;2022-08-21T06:09:04;11.63;;;6.13;;
71629;SDS011;59479;51.902;8.212;2022-08-21T06:11:30;11.63;;;5.68;;
71629;SDS011;59479;51.902;8.212;2022-08-21T06:13:56;10.70;;;5.80;;
71629;SDS011;59479;51.902;8.212;2022-08-21T06:16:22;11.05;;;6.20;;
71629;SDS011;59479;51.902;8.212;2022-08-21T06:18:47;11.35;;;6.30;;
71629;SDS011;59479;51.902;8.212;2022-08-21T06:21:13;12.80;;;6.05;;
71629;SDS011;59479;51.902;8.212;2022-08-21T06:23:38;10.63;;;6.38;;
71629;SDS011;59479;51.902;8.212;2022-08-21T06:26:05;12.07;;;6.63;;
71629;SDS011;59479;51.902;8.212;2022-08-21T06:28:32;10.55;;;6.38;;
71629;SDS011;59479;51.902;8.212;2022-08-21T06:30:58;13.80;;;6.28;;
71629;SDS011;59479;51.902;8.212;2022-08-21T06:33:26;9.98;;;6.28;;
71629;SDS011;59479;51.902;8.212;2022-08-21T06:35:55;10.82;;;6.25;;
71629;SDS011;59479;51.902;8.212;2022-08-21T06:38:23;12.70;;;6.85;;
71629;SDS011;59479;51.902;8.212;2022-08-21T06:40:49;10.13;;;6.28;;
71629;SDS011;59479;51.902;8.212;2022-08-21T06:43:15;13.27;;;7.00;;
71629;SDS011;59479;51.902;8.212;2022-08-21T06:45:41;12.10;;;6.15;;
71629;SDS011;59479;51.902;8.212;2022-08-21T06:48:07;11.50;;;7.43;;
71629;SDS011;59479;51.902;8.212;2022-08-21T06:50:33;14.48;;;7.57;;
71629;SDS011;59479;51.902;8.212;2022-08-21T06:53:08;11.27;;;6.53;;
71629;SDS011;59479;51.902;8.212;2022-08-21T06:55:36;12.35;;;7.47;;
71629;SDS011;59479;51.902;8.212;2022-08-21T06:58:02;13.88;;;7.22;;
71629;SDS011;59479;51.902;8.212;2022-08-21T07:00:27;12.23;;;7.00;;
71629;SDS011;59479;51.902;8.212;2022-08-21T07:02:53;11.27;;;6.40;;
71629;SDS011;59479;51.902;8.212;2022-08-21T07:05:18;11.07;;;6.97;;
71629;SDS011;59479;51.902;8.212;2022-08-21T07:07:44;13.60;;;7.37;;
71629;SDS011;59479;51.902;8.212;2022-08-21T07:10:10;12.13;;;6.88;;
71629;SDS011;59479;51.902;8.212;2022-08-21T07:12:35;13.43;;;6.50;;
71629;SDS011;59479;51.902;8.212;2022-08-21T07:15:01;12.33;;;6.80;;
71629;SDS011;59479;51.902;8.212;2022-08-21T07:17:26;11.38;;;6.85;;
71629;SDS011;59479;51.902;8.212;2022-08-21T07:19:51;11.52;;;6.45;;
71629;SDS011;59479;51.902;8.212;2022-08-21T07:22:18;11.37;;;6.17;;
71629;SDS011;59479;51.902;8.212;2022-08-21T07:24:45;12.73;;;6.50;;
71629;SDS011;59479;51.902;8.212;2022-08-21T07:27:11;10.70;;;6.55;;
71629;SDS011;59479;51.902;8.212;2022-08-21T07:29:37;12.00;;;6.25;;
71629;SDS011;59479;51.902;8.212;2022-08-21T07:32:02;14.97;;;6.50;;
71629;SDS011;59479;51.902;8.212;2022-08-21T07:34:28;11.70;;;6.63;;
71629;SDS011;59479;51.902;8.212;2022-08-21T07:36:55;10.77;;;6.47;;
71629;SDS011;59479;51.902;8.212;2022-08-21T07:39:20;13.07;;;6.27;;
71629;SDS011;59479;51.902;8.212;2022-08-21T07:41:45;12.73;;;6.27;;
71629;SDS011;59479;51.902;8.212;2022-08-21T07:44:11;11.00;;;6.13;;
71629;SDS011;59479;51.902;8.212;2022-08-21T07:46:36;11.97;;;5.70;;
71629;SDS011;59479;51.902;8.212;2022-08-21T07:49:01;10.87;;;6.17;;
71629;SDS011;59479;51.902;8.212;2022-08-21T07:51:27;12.13;;;5.90;;
71629;SDS011;59479;51.902;8.212;2022-08-21T07:53:54;11.88;;;5.68;;
71629;SDS011;59479;51.902;8.212;2022-08-21T07:56:21;11.20;;;5.18;;
71629;SDS011;59479;51.902;8.212;2022-08-21T07:58:47;14.45;;;5.90;;
71629;SDS011;59479;51.902;8.212;2022-08-21T08:01:13;15.10;;;5.75;;
71629;SDS011;59479;51.902;8.212;2022-08-21T08:03:38;8.80;;;5.05;;
71629;SDS011;59479;51.902;8.212;2022-08-21T08:06:04;14.60;;;4.97;;
71629;SDS011;59479;51.902;8.212;2022-08-21T08:08:30;12.02;;;4.63;;
71629;SDS011;59479;51.902;8.212;2022-08-21T08:10:56;10.35;;;4.70;;
71629;SDS011;59479;51.902;8.212;2022-08-21T08:13:22;10.90;;;4.97;;
71629;SDS011;59479;51.902;8.212;2022-08-21T08:15:48;9.60;;;4.45;;
71629;SDS011;59479;51.902;8.212;2022-08-21T08:18:14;9.03;;;4.20;;
71629;SDS011;59479;51.902;8.212;2022-08-21T08:20:39;7.97;;;4.03;;
71629;SDS011;59479;51.902;8.212;2022-08-21T08:23:06;10.82;;;4.07;;
71629;SDS011;59479;51.902;8.212;2022-08-21T08:25:31;7.13;;;3.60;;
71629;SDS011;59479;51.902;8.212;2022-08-21T08:27:57;9.47;;;3.97;;
71629;SDS011;59479;51.902;8.212;2022-08-21T08:30:22;9.13;;;4.13;;
71629;SDS011;59479;51.902;8.212;2022-08-21T08:32:48;8.43;;;4.47;;
71629;SDS011;59479;51.902;8.212;2022-08-21T08:35:14;12.10;;;5.50;;
71629;SDS011;59479;51.902;8.212;2022-08-21T08:37:41;10.52;;;4.68;;
71629;SDS011;59479;51.902;8.212;2022-08-21T08:40:17;7.20;;;3.90;;
71629;SDS011;59479;51.902;8.212;2022-08-21T08:42:47;11.70;;;4.47;;
71629;SDS011;59479;51.902;8.212;2022-08-21T08:45:16;9.40;;;5.22;;
71629;SDS011;59479;51.902;8.212;2022-08-21T08:47:45;7.07;;;4.37;;
71629;SDS011;59479;51.902;8.212;2022-08-21T08:50:22;9.88;;;4.65;;
71629;SDS011;59479;51.902;8.212;2022-08-21T08:52:57;11.55;;;5.20;;
71629;SDS011;59479;51.902;8.212;2022-08-21T08:55:44;10.00;;;4.68;;
71629;SDS011;59479;51.902;8.212;2022-08-21T08:58:12;10.50;;;4.50;;
71629;SDS011;59479;51.902;8.212;2022-08-21T09:00:45;9.93;;;4.50;;
71629;SDS011;59479;51.902;8.212;2022-08-21T09:03:13;7.72;;;3.97;;
71629;SDS011;59479;51.902;8.212;2022-08-21T09:05:45;7.95;;;3.92;;
71629;SDS011;59479;51.902;8.212;2022-08-21T09:08:25;10.90;;;3.92;;
71629;SDS011;59479;51.902;8.212;2022-08-21T09:16:55;7.05;;;3.47;;
71629;SDS011;59479;51.902;8.212;2022-08-21T09:19:36;8.65;;;3.53;;
71629;SDS011;59479;51.902;8.212;2022-08-21T09:25:02;8.65;;;3.17;;
71629;SDS011;59479;51.902;8.212;2022-08-21T09:27:36;7.67;;;3.07;;
71629;SDS011;59479;51.902;8.212;2022-08-21T09:30:02;9.07;;;3.20;;
71629;SDS011;59479;51.902;8.212;2022-08-21T09:32:30;6.50;;;2.80;;
71629;SDS011;59479;51.902;8.212;2022-08-21T09:37:29;6.32;;;2.75;;
71629;SDS011;59479;51.902;8.212;2022-08-21T09:39:57;7.78;;;3.35;;
71629;SDS011;59479;51.902;8.212;2022-08-21T09:42:24;11.20;;;3.55;;
71629;SDS011;59479;51.902;8.212;2022-08-21T09:45:12;12.35;;;3.75;;
71629;SDS011;59479;51.902;8.212;2022-08-21T09:47:40;8.73;;;2.78;;
71629;SDS011;59479;51.902;8.212;2022-08-21T09:50:14;6.38;;;2.45;;
71629;SDS011;59479;51.902;8.212;2022-08-21T09:52:47;8.55;;;2.75;;
71629;SDS011;59479;51.902;8.212;2022-08-21T09:55:34;7.57;;;3.30;;
71629;SDS011;59479;51.902;8.212;2022-08-21T09:58:29;6.95;;;2.92;;
71629;SDS011;59479;51.902;8.212;2022-08-21T10:00:58;7.13;;;3.17;;
71629;SDS011;59479;51.902;8.212;2022-08-21T10:03:25;6.63;;;2.58;;
71629;SDS011;59479;51.902;8.212;2022-08-21T10:05:55;6.97;;;3.13;;
71629;SDS011;59479;51.902;8.212;2022-08-21T10:08:24;9.05;;;3.00;;
71629;SDS011;59479;51.902;8.212;2022-08-21T10:11:02;7.95;;;3.33;;
71629;SDS011;59479;51.902;8.212;2022-08-21T10:21:59;10.45;;;3.33;;
71629;SDS011;59479;51.902;8.212;2022-08-21T10:24:35;9.45;;;3.28;;
71629;SDS011;59479;51.902;8.212;2022-08-21T10:29:58;7.82;;;2.50;;
71629;SDS011;59479;51.902;8.212;2022-08-21T10:37:52;11.52;;;3.38;;
71629;SDS011;59479;51.902;8.212;2022-08-21T10:45:51;5.78;;;3.15;;
71629;SDS011;59479;51.902;8.212;2022-08-21T10:48:32;6.45;;;2.90;;
71629;SDS011;59479;51.902;8.212;2022-08-21T10:51:06;9.25;;;3.22;;
71629;SDS011;59479;51.902;8.212;2022-08-21T10:53:41;6.77;;;3.10;;
71629;SDS011;59479;51.902;8.212;2022-08-21T10:56:23;6.43;;;2.90;;
71629;SDS011;59479;51.902;8.212;2022-08-21T10:58:58;6.18;;;2.95;;
71629;SDS011;59479;51.902;8.212;2022-08-21T11:01:39;8.18;;;3.20;;
71629;SDS011;59479;51.902;8.212;2022-08-21T11:04:31;9.18;;;3.20;;
71629;SDS011;59479;51.902;8.212;2022-08-21T11:07:03;7.83;;;3.23;;
71629;SDS011;59479;51.902;8.212;2022-08-21T11:09:34;7.30;;;2.65;;
71629;SDS011;59479;51.902;8.212;2022-08-21T11:15:27;6.40;;;2.92;;
71629;SDS011;59479;51.902;8.212;2022-08-21T11:18:15;9.13;;;3.38;;
71629;SDS011;59479;51.902;8.212;2022-08-21T11:26:10;7.45;;;3.28;;
71629;SDS011;59479;51.902;8.212;2022-08-21T11:28:43;7.63;;;3.70;;
71629;SDS011;59479;51.902;8.212;2022-08-21T11:50:47;6.72;;;2.10;;
71629;SDS011;59479;51.902;8.212;2022-08-21T11:53:16;7.63;;;2.50;;
71629;SDS011;59479;51.902;8.212;2022-08-21T11:55:47;7.10;;;2.20;;
71629;SDS011;59479;51.902;8.212;2022-08-21T12:00:57;5.90;;;1.90;;
71629;SDS011;59479;51.902;8.212;2022-08-21T12:04:30;7.50;;;1.80;;
71629;SDS011;59479;51.902;8.212;2022-08-21T12:06:53;5.97;;;1.90;;
71629;SDS011;59479;51.902;8.212;2022-08-21T12:11:59;6.32;;;2.08;;
71629;SDS011;59479;51.902;8.212;2022-08-21T12:14:36;5.60;;;1.80;;
71629;SDS011;59479;51.902;8.212;2022-08-21T12:17:08;5.97;;;1.98;;
71629;SDS011;59479;51.902;8.212;2022-08-21T12:19:42;5.10;;;1.95;;
71629;SDS011;59479;51.902;8.212;2022-08-21T12:22:10;5.85;;;2.03;;
71629;SDS011;59479;51.902;8.212;2022-08-21T12:24:41;8.30;;;1.90;;
71629;SDS011;59479;51.902;8.212;2022-08-21T12:29:46;5.45;;;2.20;;
71629;SDS011;59479;51.902;8.212;2022-08-21T12:34:40;4.83;;;1.70;;
71629;SDS011;59479;51.902;8.212;2022-08-21T12:40:02;4.32;;;1.67;;
71629;SDS011;59479;51.902;8.212;2022-08-21T12:42:31;5.97;;;1.80;;
71629;SDS011;59479;51.902;8.212;2022-08-21T12:45:00;6.22;;;1.63;;
71629;SDS011;59479;51.902;8.212;2022-08-21T12:47:36;4.45;;;1.60;;
71629;SDS011;59479;51.902;8.212;2022-08-21T12:50:19;5.53;;;1.70;;
71629;SDS011;59479;51.902;8.212;2022-08-21T12:52:55;5.45;;;1.60;;
71629;SDS011;59479;51.902;8.212;2022-08-21T12:55:26;5.15;;;1.65;;
71629;SDS011;59479;51.902;8.212;2022-08-21T12:57:53;5.72;;;1.73;;
71629;SDS011;59479;51.902;8.212;2022-08-21T13:00:20;5.73;;;1.60;;
71629;SDS011;59479;51.902;8.212;2022-08-21T13:02:49;6.22;;;1.90;;
71629;SDS011;59479;51.902;8.212;2022-08-21T13:05:23;4.65;;;1.80;;
71629;SDS011;59479;51.902;8.212;2022-08-21T13:07:52;5.85;;;2.00;;
71629;SDS011;59479;51.902;8.212;2022-08-21T13:12:59;4.35;;;1.80;;
71629;SDS011;59479;51.902;8.212;2022-08-21T13:15:31;7.63;;;2.00;;
71629;SDS011;59479;51.902;8.212;2022-08-21T13:17:58;5.03;;;1.85;;
71629;SDS011;59479;51.902;8.212;2022-08-21T13:20:28;5.38;;;1.90;;
71629;SDS011;59479;51.902;8.212;2022-08-21T13:22:56;5.20;;;1.75;;
71629;SDS011;59479;51.902;8.212;2022-08-21T13:25:25;6.10;;;2.05;;
71629;SDS011;59479;51.902;8.212;2022-08-21T13:28:01;5.32;;;2.08;;
71629;SDS011;59479;51.902;8.212;2022-08-21T13:30:34;6.35;;;2.20;;
71629;SDS011;59479;51.902;8.212;2022-08-21T13:33:05;4.80;;;1.88;;
71629;SDS011;59479;51.902;8.212;2022-08-21T13:35:45;4.28;;;1.70;;
71629;SDS011;59479;51.902;8.212;2022-08-21T13:38:14;4.53;;;1.80;;
71629;SDS011;59479;51.902;8.212;2022-08-21T13:40:50;4.40;;;1.67;;
71629;SDS011;59479;51.902;8.212;2022-08-21T13:43:22;5.32;;;1.95;;
71629;SDS011;59479;51.902;8.212;2022-08-21T13:45:54;3.90;;;1.60;;
71629;SDS011;59479;51.902;8.212;2022-08-21T13:48:21;3.95;;;1.70;;
71629;SDS011;59479;51.902;8.212;2022-08-21T13:50:50;6.68;;;1.80;;
71629;SDS011;59479;51.902;8.212;2022-08-21T13:53:36;5.07;;;1.58;;
71629;SDS011;59479;51.902;8.212;2022-08-21T13:58:51;4.10;;;1.27;;
71629;SDS011;59479;51.902;8.212;2022-08-21T14:01:20;4.28;;;1.60;;
71629;SDS011;59479;51.902;8.212;2022-08-21T14:03:55;4.78;;;1.70;;
71629;SDS011;59479;51.902;8.212;2022-08-21T14:06:27;5.40;;;1.20;;
71629;SDS011;59479;51.902;8.212;2022-08-21T14:08:58;3.13;;;1.13;;
71629;SDS011;59479;51.902;8.212;2022-08-21T14:11:27;4.97;;;1.38;;
71629;SDS011;59479;51.902;8.212;2022-08-21T14:14:00;3.67;;;1.33;;
71629;SDS011;59479;51.902;8.212;2022-08-21T14:16:40;3.85;;;1.33;;
71629;SDS011;59479;51.902;8.212;2022-08-21T14:19:15;4.27;;;1.33;;
71629;SDS011;59479;51.902;8.212;2022-08-21T14:21:44;4.13;;;1.20;;
71629;SDS011;59479;51.902;8.212;2022-08-21T14:24:12;4.60;;;1.50;;
71629;SDS011;59479;51.902;8.212;2022-08-21T14:27:11;3.95;;;1.33;;
71629;SDS011;59479;51.902;8.212;2022-08-21T14:29:38;4.82;;;1.67;;
71629;SDS011;59479;51.902;8.212;2022-08-21T14:32:24;5.90;;;1.20;;
71629;SDS011;59479;51.902;8.212;2022-08-21T14:34:55;3.28;;;1.20;;
71629;SDS011;59479;51.902;8.212;2022-08-21T14:37:21;4.43;;;1.45;;
71629;SDS011;59479;51.902;8.212;2022-08-21T14:39:47;5.13;;;1.42;;
71629;SDS011;59479;51.902;8.212;2022-08-21T14:42:12;3.92;;;1.40;;
71629;SDS011;59479;51.902;8.212;2022-08-21T14:44:38;4.10;;;1.50;;
71629;SDS011;59479;51.902;8.212;2022-08-21T14:47:03;3.83;;;1.33;;
71629;SDS011;59479;51.902;8.212;2022-08-21T14:49:29;5.50;;;1.27;;
71629;SDS011;59479;51.902;8.212;2022-08-21T14:51:55;3.45;;;1.40;;
71629;SDS011;59479;51.902;8.212;2022-08-21T14:54:23;5.82;;;1.60;;
71629;SDS011;59479;51.902;8.212;2022-08-21T14:56:49;3.10;;;1.40;;
71629;SDS011;59479;51.902;8.212;2022-08-21T14:59:15;4.13;;;1.40;;
71629;SDS011;59479;51.902;8.212;2022-08-21T15:01:41;4.15;;;1.05;;
71629;SDS011;59479;51.902;8.212;2022-08-21T15:04:06;4.28;;;1.25;;
71629;SDS011;59479;51.902;8.212;2022-08-21T15:06:31;5.47;;;1.57;;
71629;SDS011;59479;51.902;8.212;2022-08-21T15:08:57;4.30;;;1.10;;
71629;SDS011;59479;51.902;8.212;2022-08-21T15:11:23;4.17;;;1.27;;
71629;SDS011;59479;51.902;8.212;2022-08-21T15:13:50;4.22;;;1.30;;
71629;SDS011;59479;51.902;8.212;2022-08-21T15:16:22;3.70;;;1.40;;
71629;SDS011;59479;51.902;8.212;2022-08-21T15:18:48;3.88;;;1.63;;
71629;SDS011;59479;51.902;8.212;2022-08-21T15:21:13;4.70;;;1.63;;
71629;SDS011;59479;51.902;8.212;2022-08-21T15:23:40;6.40;;;1.33;;
71629;SDS011;59479;51.902;8.212;2022-08-21T15:26:06;6.57;;;1.40;;
71629;SDS011;59479;51.902;8.212;2022-08-21T15:28:31;4.97;;;1.35;;
71629;SDS011;59479;51.902;8.212;2022-08-21T15:30:59;5.88;;;1.40;;
71629;SDS011;59479;51.902;8.212;2022-08-21T15:33:26;3.50;;;1.33;;
71629;SDS011;59479;51.902;8.212;2022-08-21T15:35:51;3.57;;;1.17;;
71629;SDS011;59479;51.902;8.212;2022-08-21T15:38:16;3.80;;;1.20;;
71629;SDS011;59479;51.902;8.212;2022-08-21T15:40:42;4.43;;;1.33;;
71629;SDS011;59479;51.902;8.212;2022-08-21T15:43:10;4.03;;;1.40;;
71629;SDS011;59479;51.902;8.212;2022-08-21T15:45:45;4.43;;;1.45;;
71629;SDS011;59479;51.902;8.212;2022-08-21T15:48:11;3.87;;;1.23;;
71629;SDS011;59479;51.902;8.212;2022-08-21T15:50:36;4.75;;;1.33;;
71629;SDS011;59479;51.902;8.212;2022-08-21T15:53:01;3.70;;;1.37;;
71629;SDS011;59479;51.902;8.212;2022-08-21T15:55:28;6.03;;;1.52;;
71629;SDS011;59479;51.902;8.212;2022-08-21T15:57:53;4.03;;;1.40;;
71629;SDS011;59479;51.902;8.212;2022-08-21T16:00:20;4.90;;;1.43;;
71629;SDS011;59479;51.902;8.212;2022-08-21T16:02:48;5.25;;;1.83;;
71629;SDS011;59479;51.902;8.212;2022-08-21T16:05:17;5.07;;;1.33;;
71629;SDS011;59479;51.902;8.212;2022-08-21T16:07:43;3.53;;;1.30;;
71629;SDS011;59479;51.902;8.212;2022-08-21T16:10:10;3.92;;;1.50;;
71629;SDS011;59479;51.902;8.212;2022-08-21T16:12:37;5.05;;;1.55;;
71629;SDS011;59479;51.902;8.212;2022-08-21T16:15:07;6.00;;;1.45;;
71629;SDS011;59479;51.902;8.212;2022-08-21T16:17:35;4.23;;;1.43;;
71629;SDS011;59479;51.902;8.212;2022-08-21T16:20:06;4.57;;;1.40;;